createdAt,value
2023-03-31T00:02:13.571Z,11.10
2023-03-31T00:04:52.510Z,11.08
2023-03-31T00:07:23.660Z,11.10
2023-03-31T00:09:50.177Z,11.06
2023-03-31T00:12:17.289Z,11.02
2023-03-31T00:14:44.503Z,11.01
2023-03-31T00:17:11.662Z,10.93
2023-03-31T00:19:40.274Z,10.83
2023-03-31T00:22:07.957Z,10.79
2023-03-31T00:24:35.643Z,10.70
2023-03-31T00:27:03.825Z,10.68
2023-03-31T00:29:31.474Z,10.67
2023-03-31T00:31:59.985Z,10.65
2023-03-31T00:34:27.295Z,10.64
2023-03-31T00:36:56.517Z,10.63
2023-03-31T00:39:24.753Z,10.64
2023-03-31T00:41:51.358Z,10.64
2023-03-31T00:44:24.380Z,10.59
2023-03-31T00:47:01.472Z,10.59
2023-03-31T00:49:34.154Z,10.58
2023-03-31T00:52:07.291Z,10.59
2023-03-31T00:54:36.447Z,10.53
2023-03-31T00:57:06.918Z,10.51
2023-03-31T00:59:39.257Z,10.48
2023-03-31T01:02:10.362Z,10.45
2023-03-31T01:04:45.825Z,10.40
2023-03-31T01:07:23.060Z,10.38
2023-03-31T01:09:54.370Z,10.34
2023-03-31T01:12:22.204Z,10.30
2023-03-31T01:14:50.757Z,10.29
2023-03-31T01:17:21.745Z,10.27
2023-03-31T01:19:56.133Z,10.27
2023-03-31T01:22:37.959Z,10.30
2023-03-31T01:25:19.393Z,10.30
2023-03-31T01:27:54.214Z,10.30
2023-03-31T01:31:02.938Z,10.27
2023-03-31T01:33:51.364Z,10.23
2023-03-31T01:36:46.768Z,10.20
2023-03-31T01:39:31.233Z,10.15
2023-03-31T01:42:09.460Z,10.11
2023-03-31T01:45:02.561Z,10.09
2023-03-31T01:47:40.508Z,10.04
2023-03-31T01:50:18.218Z,10.03
2023-03-31T01:52:57.002Z,10.00
2023-03-31T01:55:42.398Z,9.94
2023-03-31T01:58:39.265Z,9.92
2023-03-31T02:01:16.095Z,9.87
2023-03-31T02:04:18.360Z,9.84
2023-03-31T02:06:52.885Z,9.82
2023-03-31T02:09:32.325Z,9.79
2023-03-31T02:12:00.210Z,9.77
2023-03-31T02:14:31.116Z,9.80
2023-03-31T02:17:02.288Z,9.82
2023-03-31T02:19:33.674Z,9.85
2023-03-31T02:22:04.456Z,9.86
2023-03-31T02:24:33.549Z,9.89
2023-03-31T02:27:18.630Z,9.89
2023-03-31T02:29:45.477Z,9.88
2023-03-31T02:32:44.066Z,9.87
2023-03-31T02:35:16.204Z,9.88
2023-03-31T02:37:44.143Z,9.86
2023-03-31T02:40:17.342Z,9.84
2023-03-31T02:42:44.507Z,9.87
2023-03-31T02:45:35.769Z,9.88
2023-03-31T02:48:02.635Z,9.86
2023-03-31T02:50:41.051Z,9.87
2023-03-31T02:53:20.989Z,9.91
2023-03-31T02:56:18.557Z,9.93
2023-03-31T02:58:57.901Z,9.95
2023-03-31T03:01:44.964Z,9.99
2023-03-31T03:04:30.212Z,10.05
2023-03-31T03:06:59.496Z,10.09
2023-03-31T03:09:56.273Z,10.13
2023-03-31T03:12:28.161Z,10.18
2023-03-31T03:15:03.844Z,10.23
2023-03-31T03:17:36.406Z,10.19
2023-03-31T03:20:09.632Z,10.20
2023-03-31T03:22:40.655Z,10.20
2023-03-31T03:25:09.689Z,10.19
2023-03-31T03:27:36.822Z,10.18
2023-03-31T03:30:05.814Z,10.13
2023-03-31T03:32:33.822Z,10.08
2023-03-31T03:35:01.981Z,10.10
2023-03-31T03:37:29.141Z,10.08
2023-03-31T03:39:55.782Z,10.05
2023-03-31T03:42:22.470Z,10.03
2023-03-31T03:44:49.104Z,10.01
2023-03-31T03:47:15.770Z,9.97
2023-03-31T03:49:42.422Z,9.95
2023-03-31T03:52:09.062Z,9.92
2023-03-31T03:54:36.066Z,9.92
2023-03-31T03:57:02.646Z,9.87
2023-03-31T03:59:29.161Z,9.83
2023-03-31T04:01:55.934Z,9.79
2023-03-31T04:04:22.654Z,9.78
2023-03-31T04:06:49.400Z,9.71
2023-03-31T04:09:16.028Z,9.65
2023-03-31T04:11:42.550Z,9.64
2023-03-31T04:14:09.112Z,9.64
2023-03-31T04:16:35.857Z,9.63
2023-03-31T04:19:04.910Z,9.60
2023-03-31T04:21:34.956Z,9.57
2023-03-31T04:24:04.563Z,9.55
2023-03-31T04:26:43.266Z,9.52
2023-03-31T04:29:16.535Z,9.50
2023-03-31T04:31:44.421Z,9.49
2023-03-31T04:34:15.811Z,9.48
2023-03-31T04:36:47.772Z,9.45
2023-03-31T04:39:26.679Z,9.42
2023-03-31T04:41:54.063Z,9.40
2023-03-31T04:44:20.595Z,9.38
2023-03-31T04:46:47.118Z,9.37
2023-03-31T04:49:13.775Z,9.35
2023-03-31T04:51:40.627Z,9.34
2023-03-31T04:54:07.425Z,9.35
2023-03-31T04:56:34.277Z,9.36
2023-03-31T04:59:00.895Z,9.35
2023-03-31T05:01:27.471Z,9.29
2023-03-31T05:03:54.007Z,9.30
2023-03-31T05:06:20.651Z,9.33
2023-03-31T05:08:47.327Z,9.35
2023-03-31T05:11:13.983Z,9.36
2023-03-31T05:13:40.518Z,9.33
2023-03-31T05:16:12.438Z,9.31
2023-03-31T05:18:39.051Z,9.30
2023-03-31T05:21:17.567Z,9.30
2023-03-31T05:23:45.972Z,9.30
2023-03-31T05:26:13.935Z,9.31
2023-03-31T05:28:41.649Z,9.32
2023-03-31T05:31:09.928Z,9.32
2023-03-31T05:33:42.322Z,9.34
2023-03-31T05:36:11.922Z,9.33
2023-03-31T05:38:40.000Z,9.36
2023-03-31T05:41:09.772Z,9.40
2023-03-31T05:43:37.571Z,9.38
2023-03-31T05:46:04.939Z,9.39
2023-03-31T05:48:32.191Z,9.40
2023-03-31T05:51:00.108Z,9.46
2023-03-31T05:53:27.540Z,9.49
2023-03-31T05:55:59.649Z,9.53
2023-03-31T05:58:27.008Z,9.54
2023-03-31T06:01:17.728Z,9.55
2023-03-31T06:03:45.280Z,9.50
2023-03-31T06:06:13.397Z,9.52
2023-03-31T06:08:39.963Z,9.53
2023-03-31T06:11:11.821Z,9.66
2023-03-31T06:13:39.604Z,9.79
2023-03-31T06:16:07.011Z,9.87
2023-03-31T06:18:35.889Z,9.91
2023-03-31T06:21:03.478Z,9.93
2023-03-31T06:23:30.204Z,9.97
2023-03-31T06:26:02.067Z,9.99
2023-03-31T06:28:28.769Z,10.01
2023-03-31T06:31:10.105Z,10.05
2023-03-31T06:33:36.950Z,10.06
2023-03-31T06:36:05.690Z,10.10
2023-03-31T06:38:33.970Z,10.13
2023-03-31T06:41:00.579Z,10.16
2023-03-31T06:43:27.319Z,10.21
2023-03-31T06:45:54.700Z,10.24
2023-03-31T06:48:22.455Z,10.27
2023-03-31T06:50:49.310Z,10.27
2023-03-31T06:53:15.962Z,10.30
2023-03-31T06:55:42.517Z,10.33
2023-03-31T06:58:09.126Z,10.32
2023-03-31T07:00:35.730Z,10.36
2023-03-31T07:03:04.004Z,10.39
2023-03-31T07:05:31.573Z,10.43
2023-03-31T07:07:59.949Z,10.48
2023-03-31T07:10:28.863Z,10.48
2023-03-31T07:12:55.919Z,10.49
2023-03-31T07:15:23.091Z,10.53
2023-03-31T07:17:51.152Z,10.56
2023-03-31T07:20:18.905Z,10.62
2023-03-31T07:22:47.894Z,10.63
2023-03-31T07:25:16.777Z,10.68
2023-03-31T07:27:44.190Z,10.72
2023-03-31T07:30:15.406Z,10.72
2023-03-31T07:32:42.169Z,10.75
2023-03-31T07:35:11.696Z,10.90
2023-03-31T07:37:43.382Z,11.05
2023-03-31T07:40:12.522Z,11.06
2023-03-31T07:42:39.105Z,11.03
2023-03-31T07:45:08.008Z,11.12
2023-03-31T07:47:34.983Z,11.08
2023-03-31T07:50:01.579Z,10.99
2023-03-31T07:52:28.092Z,10.98
2023-03-31T07:54:54.697Z,10.91
2023-03-31T07:57:21.260Z,10.90
2023-03-31T07:59:47.937Z,10.93
2023-03-31T08:02:16.606Z,10.98
2023-03-31T08:04:43.862Z,10.96
2023-03-31T08:07:16.743Z,10.89
2023-03-31T08:09:45.721Z,10.90
2023-03-31T08:12:14.163Z,11.00
2023-03-31T08:14:41.992Z,11.04
2023-03-31T08:17:10.047Z,11.08
2023-03-31T08:19:37.216Z,11.17
2023-03-31T08:22:04.152Z,11.16
2023-03-31T08:24:30.726Z,11.31
2023-03-31T08:26:57.333Z,11.44
2023-03-31T08:29:23.959Z,11.45
2023-03-31T08:31:50.633Z,11.41
2023-03-31T08:34:17.168Z,11.49
2023-03-31T08:36:43.723Z,11.58
2023-03-31T08:39:10.452Z,11.45
2023-03-31T08:41:53.752Z,11.50
2023-03-31T08:44:39.339Z,11.63
2023-03-31T08:47:12.981Z,11.66
2023-03-31T08:49:48.196Z,11.71
2023-03-31T08:52:19.318Z,11.75
2023-03-31T08:54:53.262Z,11.76
2023-03-31T08:57:25.475Z,11.75
2023-03-31T08:59:52.647Z,11.75
2023-03-31T09:02:42.476Z,11.81
2023-03-31T09:05:24.839Z,11.80
2023-03-31T09:07:57.145Z,11.79
2023-03-31T09:10:42.153Z,11.74
2023-03-31T09:13:20.967Z,11.72
2023-03-31T09:16:16.276Z,11.67
2023-03-31T09:18:46.924Z,11.67
2023-03-31T09:21:19.814Z,11.67
2023-03-31T09:23:53.803Z,11.65
2023-03-31T09:26:32.391Z,11.59
2023-03-31T09:29:01.681Z,11.48
2023-03-31T09:31:28.821Z,11.24
2023-03-31T09:34:01.789Z,10.94
2023-03-31T09:36:28.920Z,10.63
2023-03-31T09:38:55.730Z,10.57
2023-03-31T09:41:22.335Z,10.51
2023-03-31T09:43:50.107Z,10.42
2023-03-31T09:46:31.098Z,10.51
2023-03-31T09:49:17.937Z,10.48
2023-03-31T09:51:49.071Z,10.49
2023-03-31T09:54:29.455Z,10.55
2023-03-31T09:56:56.114Z,10.71
2023-03-31T09:59:30.594Z,10.81
2023-03-31T10:02:00.409Z,10.95
2023-03-31T10:04:30.393Z,11.08
2023-03-31T10:06:59.014Z,11.02
2023-03-31T10:09:30.376Z,11.25
2023-03-31T10:12:06.222Z,11.12
2023-03-31T10:14:45.138Z,11.11
2023-03-31T10:17:20.299Z,11.19
2023-03-31T10:19:51.277Z,11.24
2023-03-31T10:22:23.612Z,11.21
2023-03-31T10:24:52.506Z,11.23
2023-03-31T10:27:29.080Z,11.16
2023-03-31T10:30:01.707Z,11.08
2023-03-31T10:32:31.150Z,10.97
2023-03-31T10:34:59.528Z,10.89
2023-03-31T10:37:28.615Z,10.86
2023-03-31T10:40:19.734Z,10.83
2023-03-31T10:42:49.967Z,10.77
2023-03-31T10:45:29.699Z,10.67
2023-03-31T10:48:03.116Z,10.62
2023-03-31T10:50:32.908Z,10.60
2023-03-31T10:53:11.562Z,10.49
2023-03-31T10:56:16.761Z,10.52
2023-03-31T10:59:05.842Z,10.70
2023-03-31T11:01:55.952Z,10.75
2023-03-31T11:04:46.833Z,10.65
2023-03-31T11:07:35.611Z,10.59
2023-03-31T11:10:17.261Z,10.60
2023-03-31T11:12:52.714Z,10.58
2023-03-31T11:15:26.772Z,10.63
2023-03-31T11:18:15.493Z,10.71
2023-03-31T11:20:57.460Z,10.81
2023-03-31T11:23:29.092Z,10.74
2023-03-31T11:26:09.633Z,10.87
2023-03-31T11:28:51.210Z,11.04
2023-03-31T11:31:28.683Z,10.95
2023-03-31T11:34:01.532Z,10.92
2023-03-31T11:36:51.242Z,10.95
2023-03-31T11:39:36.004Z,10.83
2023-03-31T11:42:08.726Z,10.89
2023-03-31T11:44:53.051Z,10.90
2023-03-31T11:47:25.183Z,11.08
2023-03-31T11:49:56.054Z,11.05
2023-03-31T11:52:29.342Z,11.23
2023-03-31T11:55:07.231Z,11.22
2023-03-31T11:57:55.216Z,11.20
2023-03-31T12:00:28.471Z,11.39
2023-03-31T12:02:59.573Z,11.58
2023-03-31T12:05:28.796Z,11.77
2023-03-31T12:08:01.519Z,11.99
2023-03-31T12:10:53.732Z,12.15
2023-03-31T12:13:44.166Z,12.14
2023-03-31T12:16:32.794Z,12.16
2023-03-31T12:19:07.510Z,12.18
2023-03-31T12:21:37.246Z,12.30
2023-03-31T12:24:04.704Z,12.34
2023-03-31T12:26:48.412Z,12.30
2023-03-31T12:29:39.069Z,12.00
2023-03-31T12:32:13.844Z,11.91
2023-03-31T12:34:51.701Z,11.92
2023-03-31T12:37:27.514Z,11.68
2023-03-31T12:40:31.720Z,11.56
2023-03-31T12:43:08.452Z,11.47
2023-03-31T12:45:47.417Z,11.42
2023-03-31T12:48:45.652Z,11.33
2023-03-31T12:51:36.974Z,11.32
2023-03-31T12:54:18.460Z,11.39
2023-03-31T12:57:11.262Z,11.44
2023-03-31T12:59:41.438Z,11.40
2023-03-31T13:02:24.541Z,11.41
2023-03-31T13:04:51.950Z,11.38
2023-03-31T13:07:29.177Z,11.33
2023-03-31T13:10:21.709Z,11.27
2023-03-31T13:13:00.967Z,11.15
2023-03-31T13:15:30.208Z,11.17
2023-03-31T13:18:03.091Z,11.15
2023-03-31T13:20:35.934Z,11.10
2023-03-31T13:23:16.785Z,11.14
2023-03-31T13:25:47.561Z,11.08
2023-03-31T13:28:22.904Z,11.04
2023-03-31T13:30:55.808Z,10.93
2023-03-31T13:33:33.755Z,10.88
2023-03-31T13:36:22.976Z,10.84
2023-03-31T13:39:02.652Z,10.85
2023-03-31T13:41:56.836Z,10.74
2023-03-31T13:44:23.367Z,10.79
2023-03-31T13:47:08.257Z,10.87
2023-03-31T13:49:46.786Z,10.93
2023-03-31T13:52:13.948Z,10.90
2023-03-31T13:54:49.434Z,10.86
2023-03-31T13:57:31.764Z,10.85
2023-03-31T14:00:29.304Z,10.73
2023-03-31T14:03:17.580Z,10.64
2023-03-31T14:06:15.018Z,10.68
2023-03-31T14:09:02.043Z,10.72
2023-03-31T14:11:30.991Z,10.82
2023-03-31T14:14:00.425Z,10.79
2023-03-31T14:16:29.693Z,10.76
2023-03-31T14:19:23.827Z,10.73
2023-03-31T14:22:06.851Z,10.69
2023-03-31T14:24:59.116Z,10.54
2023-03-31T14:27:50.549Z,10.56
2023-03-31T14:31:20.381Z,10.55
2023-03-31T14:33:52.384Z,10.61
2023-03-31T14:36:47.572Z,10.49
2023-03-31T14:39:21.730Z,10.43
2023-03-31T14:41:58.163Z,10.31
2023-03-31T14:44:25.887Z,10.32
2023-03-31T14:46:52.483Z,10.32
2023-03-31T14:49:27.370Z,10.36
2023-03-31T14:52:01.051Z,10.29
2023-03-31T14:54:27.653Z,10.27
2023-03-31T14:56:58.495Z,10.35
2023-03-31T14:59:33.969Z,10.35
2023-03-31T15:02:03.453Z,10.33
2023-03-31T15:04:42.057Z,10.26
2023-03-31T15:07:09.768Z,10.20
2023-03-31T15:09:36.775Z,10.29
2023-03-31T15:12:07.554Z,10.24
2023-03-31T15:14:45.680Z,10.23
2023-03-31T15:17:27.991Z,10.26
2023-03-31T15:20:00.118Z,10.17
2023-03-31T15:22:29.031Z,10.15
2023-03-31T15:24:56.120Z,10.11
2023-03-31T15:27:41.184Z,10.09
2023-03-31T15:30:19.232Z,10.06
2023-03-31T15:32:46.585Z,10.00
2023-03-31T15:35:27.583Z,9.98
2023-03-31T15:37:57.831Z,9.89
2023-03-31T15:40:54.400Z,9.94
2023-03-31T15:43:32.898Z,9.92
2023-03-31T15:46:01.432Z,9.93
2023-03-31T15:48:28.718Z,9.91
2023-03-31T15:51:36.000Z,9.85
2023-03-31T15:54:03.548Z,9.82
2023-03-31T15:56:36.041Z,9.80
2023-03-31T15:59:07.009Z,9.78
2023-03-31T16:01:45.242Z,9.82
2023-03-31T16:04:14.462Z,9.86
2023-03-31T16:06:56.597Z,9.94
2023-03-31T16:09:30.632Z,9.99
2023-03-31T16:12:01.900Z,10.05
2023-03-31T16:14:36.378Z,10.04
2023-03-31T16:17:14.124Z,10.07
2023-03-31T16:19:45.493Z,9.99
2023-03-31T16:22:20.949Z,9.96
2023-03-31T16:24:47.839Z,9.96
2023-03-31T16:27:14.742Z,10.04
2023-03-31T16:29:41.807Z,10.03
2023-03-31T16:32:12.907Z,10.04
2023-03-31T16:34:53.579Z,9.97
2023-03-31T16:37:20.243Z,9.94
2023-03-31T16:39:47.007Z,9.90
2023-03-31T16:42:13.595Z,9.91
2023-03-31T16:44:41.549Z,9.90
2023-03-31T16:47:09.512Z,9.88
2023-03-31T16:49:37.227Z,9.89
2023-03-31T16:52:05.289Z,9.89
2023-03-31T16:54:32.264Z,9.84
2023-03-31T16:56:58.844Z,9.86
2023-03-31T16:59:25.460Z,9.81
2023-03-31T17:01:52.414Z,9.82
2023-03-31T17:04:19.948Z,9.80
2023-03-31T17:06:46.602Z,9.76
2023-03-31T17:09:13.197Z,9.76
2023-03-31T17:11:40.194Z,9.73
2023-03-31T17:14:06.733Z,9.72
2023-03-31T17:16:45.068Z,9.70
2023-03-31T17:19:17.541Z,9.72
2023-03-31T17:21:44.380Z,9.70
2023-03-31T17:24:11.462Z,9.71
2023-03-31T17:26:39.366Z,9.70
2023-03-31T17:29:06.321Z,9.74
2023-03-31T17:31:32.935Z,9.71
2023-03-31T17:33:59.797Z,9.75
2023-03-31T17:36:26.738Z,9.73
2023-03-31T17:38:54.593Z,9.74
2023-03-31T17:41:21.313Z,9.75
2023-03-31T17:43:50.896Z,9.77
2023-03-31T17:46:19.035Z,9.78
2023-03-31T17:48:45.893Z,9.75
2023-03-31T17:51:15.494Z,9.77
2023-03-31T17:53:46.413Z,9.75
2023-03-31T17:56:14.056Z,9.74
2023-03-31T17:58:41.530Z,9.73
2023-03-31T18:01:09.403Z,9.69
2023-03-31T18:03:36.656Z,9.70
2023-03-31T18:06:08.253Z,9.68
2023-03-31T18:08:35.297Z,9.66
2023-03-31T18:11:04.945Z,9.67
2023-03-31T18:13:33.218Z,9.66
2023-03-31T18:15:59.865Z,9.63
2023-03-31T18:18:28.553Z,9.64
2023-03-31T18:20:56.653Z,9.65
2023-03-31T18:23:23.936Z,9.64
2023-03-31T18:25:50.642Z,9.64
2023-03-31T18:28:18.107Z,9.63
2023-03-31T18:30:46.345Z,9.65
2023-03-31T18:33:13.050Z,9.66
2023-03-31T18:35:40.242Z,9.65
2023-03-31T18:38:07.276Z,9.65
2023-03-31T18:40:38.435Z,9.62
2023-03-31T18:43:06.073Z,9.64
2023-03-31T18:45:34.018Z,9.63
2023-03-31T18:48:00.794Z,9.61
2023-03-31T18:50:27.383Z,9.59
2023-03-31T18:52:56.749Z,9.60
2023-03-31T18:55:23.407Z,9.58
2023-03-31T18:57:50.328Z,9.56
2023-03-31T19:00:17.796Z,9.54
2023-03-31T19:02:44.800Z,9.54
2023-03-31T19:05:11.739Z,9.55
2023-03-31T19:07:38.363Z,9.55
2023-03-31T19:10:05.286Z,9.54
2023-03-31T19:12:32.289Z,9.52
2023-03-31T19:15:00.415Z,9.52
2023-03-31T19:17:27.358Z,9.50
2023-03-31T19:19:53.993Z,9.51
2023-03-31T19:22:20.998Z,9.51
2023-03-31T19:24:47.588Z,9.52
2023-03-31T19:27:14.174Z,9.51
2023-03-31T19:29:41.090Z,9.52
2023-03-31T19:32:07.777Z,9.52
2023-03-31T19:34:34.457Z,9.48
2023-03-31T19:37:02.412Z,9.49
2023-03-31T19:39:29.076Z,9.49
2023-03-31T19:41:55.765Z,9.47
2023-03-31T19:44:22.749Z,9.49
2023-03-31T19:46:49.364Z,9.47
2023-03-31T19:49:15.958Z,9.45
2023-03-31T19:51:42.505Z,9.44
2023-03-31T19:54:11.771Z,9.43
2023-03-31T19:56:38.945Z,9.43
2023-03-31T19:59:06.198Z,9.42
2023-03-31T20:01:32.954Z,9.43
2023-03-31T20:03:59.765Z,9.46
2023-03-31T20:06:28.632Z,9.44
2023-03-31T20:08:59.031Z,9.44
2023-03-31T20:11:27.609Z,9.47
2023-03-31T20:13:55.049Z,9.45
2023-03-31T20:16:24.650Z,9.44
2023-03-31T20:18:55.280Z,9.42
2023-03-31T20:21:24.469Z,9.42
2023-03-31T20:23:51.215Z,9.41
2023-03-31T20:26:22.090Z,9.43
2023-03-31T20:28:48.845Z,9.38
2023-03-31T20:31:25.201Z,9.39
2023-03-31T20:33:53.105Z,9.38
2023-03-31T20:36:23.806Z,9.35
2023-03-31T20:38:52.621Z,9.34
2023-03-31T20:41:26.330Z,9.29
2023-03-31T20:43:54.146Z,9.35
2023-03-31T20:46:21.058Z,9.35
2023-03-31T20:48:51.353Z,9.34
2023-03-31T20:51:21.581Z,9.36
2023-03-31T20:53:52.882Z,9.33
2023-03-31T20:56:24.369Z,9.37
2023-03-31T20:58:53.898Z,9.36
2023-03-31T21:01:22.001Z,9.39
2023-03-31T21:03:49.621Z,9.37
2023-03-31T21:06:18.222Z,9.38
2023-03-31T21:08:46.780Z,9.38
2023-03-31T21:11:14.351Z,9.37
2023-03-31T21:13:41.037Z,9.41
2023-03-31T21:16:07.725Z,9.42
2023-03-31T21:18:37.442Z,9.40
2023-03-31T21:21:11.381Z,9.38
2023-03-31T21:23:38.841Z,9.42
2023-03-31T21:26:07.525Z,9.42
2023-03-31T21:28:36.710Z,9.43
2023-03-31T21:31:04.713Z,9.44
2023-03-31T21:33:33.429Z,9.45
2023-03-31T21:36:00.258Z,9.42
2023-03-31T21:38:30.510Z,9.45
2023-03-31T21:40:57.579Z,9.42
2023-03-31T21:43:26.426Z,9.43
2023-03-31T21:45:58.884Z,9.43
2023-03-31T21:48:26.547Z,9.40
2023-03-31T21:50:55.068Z,9.46
2023-03-31T21:53:22.394Z,9.35
2023-03-31T21:55:55.331Z,9.39
2023-03-31T21:58:28.660Z,9.47
2023-03-31T22:01:04.144Z,9.48
2023-03-31T22:03:34.483Z,9.50
2023-03-31T22:06:09.601Z,9.44
2023-03-31T22:08:39.024Z,9.47
2023-03-31T22:11:09.395Z,9.50
2023-03-31T22:13:36.766Z,9.49
2023-03-31T22:16:04.816Z,9.52
2023-03-31T22:18:31.528Z,9.51
2023-03-31T22:20:58.443Z,9.48
2023-03-31T22:23:26.297Z,9.47
2023-03-31T22:25:55.111Z,9.49
2023-03-31T22:28:22.994Z,9.49
2023-03-31T22:30:49.528Z,9.47
2023-03-31T22:33:16.698Z,9.48
2023-03-31T22:35:44.206Z,9.48
2023-03-31T22:38:14.003Z,9.45
2023-03-31T22:40:41.176Z,9.46
2023-03-31T22:43:08.626Z,9.42
2023-03-31T22:45:39.530Z,9.41
2023-03-31T22:48:08.771Z,9.38
2023-03-31T22:50:35.581Z,9.40
2023-03-31T22:53:02.487Z,9.40
2023-03-31T22:55:29.622Z,9.40
2023-03-31T22:57:57.045Z,9.39
2023-03-31T23:00:23.548Z,9.39
2023-03-31T23:02:50.342Z,9.36
2023-03-31T23:05:16.918Z,9.42
2023-03-31T23:07:43.522Z,9.45
2023-03-31T23:10:10.901Z,9.33
2023-03-31T23:12:37.473Z,9.31
2023-03-31T23:15:04.280Z,9.35
2023-03-31T23:17:31.162Z,9.35
2023-03-31T23:19:57.704Z,9.33
2023-03-31T23:22:25.807Z,9.28
2023-03-31T23:24:52.628Z,9.29
2023-03-31T23:27:20.040Z,9.29
2023-03-31T23:29:46.665Z,9.29
2023-03-31T23:32:13.697Z,9.24
2023-03-31T23:34:42.073Z,9.20
2023-03-31T23:37:10.658Z,9.21
2023-03-31T23:39:38.910Z,9.20
2023-03-31T23:42:06.780Z,9.22
2023-03-31T23:44:34.039Z,9.17
2023-03-31T23:47:00.744Z,9.18
2023-03-31T23:49:27.670Z,9.13
2023-03-31T23:51:54.873Z,9.18
2023-03-31T23:54:21.608Z,9.16
2023-03-31T23:56:48.559Z,9.18
2023-03-31T23:59:16.166Z,9.17
